Weather at Özeker Hd KRK, No. 10 Border Post Helipad

Public forecast

Using degrees Celsius for public forecast. Weather courtesy of forecast.io.

Closest aviation weather report (METAR) to Özeker Hd KRK, No. 10 Border Post Helipad

Closest report is Hatay Airport, 14.8 nm (27.5 km) WNW.

2024/02/24 09:50 (retrieved 47 minutes ago)

LTDA 240950Z 19005KT 9999 FEW040 BKN180 16/10 Q1020 NOSIG

Closest aviation forecast (TAF) to Özeker Hd KRK, No. 10 Border Post Helipad

Forecast is more than 12 hours old.

Closest forecast is Aleppo International Airport, 33.0 nm (61.2 km) E.

2024/02/22 18:33 (retrieved 2 days ago)

TAF TAF OSAP 221800Z 2218/2318 VRB03KT 5000 BR SCT030 TEMPO 2303/2306 2000 BR NSC